»·PEaware :: WAT175 KSAN-KLAS

WAT175 :: KSAN-KLAS

FLIGHT INFORMATION

Flight Status: Arrived
Operator:
Walker Air Transport
More flights by this operator :: More flights under this callsign
Pilot: Michael C. (27126)
Aircraft: BOEING 737-800
(B738)
More flights by this aircraft type
Origin: KSAN San Diego Intl-Lindbergh
United States
Destination: KLAS McCarran Intl
United States
More flights between these airports :: More routes between these airports
Route: +PADRZ2 CHKNN SEBBY YELAH MISEN KEPEC6
File this flight plan on PilotEdge
Remarks: RMK / SIMBRIEF
Altitude:
(Current/Filed)
33,000ft
Speed:
(Current/Filed)
447kts
Departed: 24-Jun-20 08:09 PM
Arrived: 24-Jun-20 08:59 PM
Distance/Time
Traveled:
225nm/0:50
Distance/Time
To Go:
Arrived

Flight Plot

Page will automatically refresh every two minutes.

Flight plan parsing failed; only flown route is shown


Map Options




Map Legend


Flown Route
Filed Route
Departure Airport
Arrival Airport
Navaid (VOR, NDB)
Fix

Horizontal Profiles

Position Reports

Time Latitude Longitude Heading Altitude Ground
Speed
24-Jun-20 19:45 32.734161 -117.203269 267 25ft 0kts
24-Jun-20 19:46 32.734161 -117.203269 267 25ft 0kts
24-Jun-20 19:47 32.734161 -117.203269 267 25ft 0kts
24-Jun-20 19:48 32.734161 -117.203269 267 25ft 0kts
24-Jun-20 19:49 32.734161 -117.203269 267 25ft 0kts
24-Jun-20 19:50 32.734161 -117.203269 267 25ft 0kts
24-Jun-20 19:51 32.734161 -117.203269 267 25ft 0kts
24-Jun-20 19:51 32.734161 -117.203269 267 25ft 0kts
24-Jun-20 19:53 32.734161 -117.203269 267 25ft 0kts
24-Jun-20 19:54 32.734161 -117.203269 267 25ft 0kts
24-Jun-20 19:54 32.734161 -117.203269 267 25ft 0kts
24-Jun-20 19:56 32.734161 -117.203269 267 25ft 0kts
24-Jun-20 19:57 32.734161 -117.203269 267 25ft 0kts
24-Jun-20 19:57 32.734161 -117.203269 267 25ft 0kts
24-Jun-20 19:58 32.734161 -117.203267 267 25ft 0kts
24-Jun-20 19:59 32.733915 -117.202756 10 25ft 1kts
24-Jun-20 20:00 32.733825 -117.202793 19 25ft 0kts
24-Jun-20 20:01 32.733825 -117.202793 19 25ft 0kts
24-Jun-20 20:02 32.734990 -117.200298 102 25ft 21kts
24-Jun-20 20:03 32.733095 -117.191966 105 25ft 24kts
24-Jun-20 20:04 32.731368 -117.184866 106 25ft 21kts
24-Jun-20 20:05 32.729869 -117.178668 106 25ft 16kts
24-Jun-20 20:06 32.729516 -117.176827 82 25ft 0kts
24-Jun-20 20:07 32.730406 -117.176768 281 25ft 20kts
24-Jun-20 20:08 32.741548 -117.216806 298 1291ft 190kts
24-Jun-20 20:09 32.776474 -117.278900 304 4260ft 250kts
24-Jun-20 20:10 32.813673 -117.340739 308 7326ft 270kts
24-Jun-20 20:11 32.861471 -117.414270 308 10547ft 288kts
24-Jun-20 20:12 32.916626 -117.499869 308 12242ft 354kts
24-Jun-20 20:13 32.977953 -117.595302 308 14867ft 376kts
24-Jun-20 20:14 33.037795 -117.688862 306 17383ft 385kts
24-Jun-20 20:15 33.112802 -117.779599 317 19700ft 399kts
24-Jun-20 20:16 33.200807 -117.868935 317 21423ft 421kts
24-Jun-20 20:17 33.293218 -117.958974 318 23329ft 432kts
24-Jun-20 20:18 33.395204 -118.035872 344 25004ft 453kts
24-Jun-20 20:19 33.519319 -118.001337 34 26505ft 485kts
24-Jun-20 20:20 33.622459 -117.899399 36 28364ft 484kts
24-Jun-20 20:21 33.723211 -117.798387 36 29501ft 496kts
24-Jun-20 20:22 33.831244 -117.689932 36 30861ft 500kts
24-Jun-20 20:23 33.938870 -117.581711 36 32360ft 499kts
24-Jun-20 20:24 34.045867 -117.473982 36 32914ft 495kts
24-Jun-20 20:25 34.145276 -117.373762 36 32982ft 489kts
24-Jun-20 20:26 34.244742 -117.273363 36 33003ft 469kts
24-Jun-20 20:27 34.346016 -117.171161 36 32982ft 471kts
24-Jun-20 20:28 34.446234 -117.069872 36 32946ft 471kts
24-Jun-20 20:29 34.546439 -116.968452 36 32833ft 465kts
24-Jun-20 20:30 34.644701 -116.868858 36 32287ft 453kts
24-Jun-20 20:31 34.742837 -116.769336 36 31295ft 460kts
24-Jun-20 20:32 34.837572 -116.673039 36 29850ft 430kts
24-Jun-20 20:33 34.929412 -116.579410 36 27799ft 444kts
24-Jun-20 20:34 35.022925 -116.484445 37 25646ft 430kts
24-Jun-20 20:35 35.111834 -116.391165 43 23807ft 415kts
24-Jun-20 20:36 35.193695 -116.289481 44 23806ft 424kts
24-Jun-20 20:37 35.274545 -116.188244 44 22803ft 426kts
24-Jun-20 20:38 35.355133 -116.086951 45 20338ft 412kts
24-Jun-20 20:39 35.434520 -115.986810 45 18242ft 403kts
24-Jun-20 20:40 35.511809 -115.888865 45 15931ft 395kts
24-Jun-20 20:41 35.587578 -115.792662 45 13616ft 386kts
24-Jun-20 20:42 35.657541 -115.703503 45 13035ft 335kts
24-Jun-20 20:43 35.722033 -115.621129 41 13026ft 333kts
24-Jun-20 20:44 35.804508 -115.574011 4 13027ft 328kts
24-Jun-20 20:45 35.896133 -115.567738 359 13014ft 327kts
24-Jun-20 20:46 35.978099 -115.525768 52 12566ft 321kts
24-Jun-20 20:47 36.014705 -115.427518 69 11259ft 311kts
24-Jun-20 20:48 36.027985 -115.330777 96 10660ft 288kts
24-Jun-20 20:49 36.020766 -115.232193 97 9417ft 286kts
24-Jun-20 20:50 36.013964 -115.134784 97 8185ft 285kts
24-Jun-20 20:51 36.059340 -115.065504 13 5989ft 294kts
24-Jun-20 20:52 36.123720 -115.026633 33 5843ft 229kts
24-Jun-20 20:53 36.175957 -114.987157 21 4941ft 223kts
24-Jun-20 20:54 36.207522 -115.030324 257 4302ft 169kts
24-Jun-20 20:55 36.190913 -115.081977 226 4351ft 162kts
24-Jun-20 20:56 36.157972 -115.120173 203 3264ft 173kts
24-Jun-20 20:57 36.114696 -115.144339 199 2539ft 173kts
24-Jun-20 20:58 36.082104 -115.162803 184 2121ft 18kts
24-Jun-20 20:59 36.081699 -115.162370 115 2121ft 0kts
24-Jun-20 21:00 36.081635 -115.156221 89 2121ft 28kts
24-Jun-20 21:01 36.080873 -115.148157 78 2121ft 10kts

Navigation Log

Ident Type
Flight plan parsing failed, navigation log unavailable